createdAt,value
2022-10-02T00:00:19.666Z,9.17
2022-10-02T00:03:01.272Z,9.12
2022-10-02T00:05:37.079Z,9.11
2022-10-02T00:08:10.348Z,9.12
2022-10-02T00:10:49.323Z,9.09
2022-10-02T00:13:21.782Z,9.08
2022-10-02T00:15:49.897Z,9.06
2022-10-02T00:18:22.925Z,9.02
2022-10-02T00:21:24.951Z,9.03
2022-10-02T00:23:59.411Z,8.97
2022-10-02T00:26:39.835Z,8.93
2022-10-02T00:29:15.390Z,8.92
2022-10-02T00:31:56.847Z,8.88
2022-10-02T00:34:52.061Z,8.92
2022-10-02T00:37:47.547Z,8.98
2022-10-02T00:40:45.566Z,8.99
2022-10-02T00:43:39.910Z,9.00
2022-10-02T00:46:38.474Z,9.01
2022-10-02T00:49:27.578Z,9.00
2022-10-02T00:52:26.084Z,9.00
2022-10-02T00:55:09.323Z,8.97
2022-10-02T00:57:56.880Z,8.93
2022-10-02T01:00:23.544Z,8.95
2022-10-02T01:03:16.175Z,8.92
2022-10-02T01:05:42.872Z,8.90
2022-10-02T01:08:09.546Z,8.89
2022-10-02T01:10:38.283Z,8.85
2022-10-02T01:13:05.692Z,8.80
2022-10-02T01:15:37.564Z,8.81
2022-10-02T01:18:04.810Z,8.80
2022-10-02T01:21:00.828Z,8.82
2022-10-02T01:23:46.476Z,8.77
2022-10-02T01:26:13.729Z,8.73
2022-10-02T01:28:40.459Z,8.72
2022-10-02T01:31:10.450Z,8.69
2022-10-02T01:33:41.425Z,8.69
2022-10-02T01:36:12.879Z,8.68
2022-10-02T01:38:40.915Z,8.67
2022-10-02T01:41:11.449Z,8.67
2022-10-02T01:44:04.419Z,8.70
2022-10-02T01:46:40.067Z,8.69
2022-10-02T01:49:12.941Z,8.72
2022-10-02T01:51:54.506Z,8.71
2022-10-02T01:54:39.319Z,8.83
2022-10-02T01:57:21.127Z,8.81
2022-10-02T02:00:15.815Z,8.82
2022-10-02T02:02:52.600Z,8.77
2022-10-02T02:05:31.469Z,8.96
2022-10-02T02:08:13.984Z,8.89
2022-10-02T02:10:52.233Z,8.86
2022-10-02T02:13:41.488Z,8.84
2022-10-02T02:16:20.470Z,8.89
2022-10-02T02:19:06.620Z,8.86
2022-10-02T02:21:39.476Z,8.86
2022-10-02T02:24:11.818Z,8.88
2022-10-02T02:26:43.629Z,8.97
2022-10-02T02:29:14.126Z,9.03
2022-10-02T02:31:48.579Z,9.05
2022-10-02T02:34:20.862Z,9.03
2022-10-02T02:36:52.398Z,9.04
2022-10-02T02:39:31.047Z,8.95
2022-10-02T02:42:03.241Z,8.85
2022-10-02T02:44:36.735Z,8.78
2022-10-02T02:47:11.289Z,8.68
2022-10-02T02:49:41.038Z,8.65
2022-10-02T02:52:11.945Z,8.64
2022-10-02T02:54:54.142Z,8.62
2022-10-02T02:57:28.670Z,8.59
2022-10-02T03:00:00.041Z,8.62
2022-10-02T03:02:26.571Z,8.58
2022-10-02T03:04:53.168Z,8.56
2022-10-02T03:07:20.107Z,8.57
2022-10-02T03:10:01.610Z,8.58
2022-10-02T03:12:44.203Z,8.48
2022-10-02T03:15:26.649Z,8.46
2022-10-02T03:18:20.222Z,8.48
2022-10-02T03:21:36.278Z,8.44
2022-10-02T03:24:21.567Z,8.38
2022-10-02T03:26:55.787Z,8.36
2022-10-02T03:29:47.243Z,8.35
2022-10-02T03:32:18.148Z,8.38
2022-10-02T03:34:45.040Z,8.46
2022-10-02T03:37:11.835Z,8.49
2022-10-02T03:39:49.274Z,8.49
2022-10-02T03:42:24.975Z,8.49
2022-10-02T03:44:51.526Z,8.58
2022-10-02T03:47:18.144Z,8.60
2022-10-02T03:49:44.680Z,8.62
2022-10-02T03:52:16.843Z,8.66
2022-10-02T03:54:44.162Z,8.65
2022-10-02T03:57:18.150Z,8.70
2022-10-02T03:59:51.226Z,8.73
2022-10-02T04:02:34.433Z,8.75
2022-10-02T04:05:10.389Z,8.90
2022-10-02T04:07:42.039Z,8.88
2022-10-02T04:10:20.600Z,8.94
2022-10-02T04:12:51.339Z,8.95
2022-10-02T04:15:37.203Z,8.97
2022-10-02T04:18:19.900Z,9.02
2022-10-02T04:20:58.579Z,9.02
2022-10-02T04:23:38.817Z,9.05
2022-10-02T04:26:14.441Z,9.18
2022-10-02T04:28:48.093Z,9.22
2022-10-02T04:31:14.943Z,9.25
2022-10-02T04:33:41.623Z,9.28
2022-10-02T04:36:23.224Z,9.33
2022-10-02T04:38:52.666Z,9.39
2022-10-02T04:41:19.189Z,9.48
2022-10-02T04:44:00.952Z,9.50
2022-10-02T04:47:04.741Z,9.55
2022-10-02T04:49:56.637Z,9.66
2022-10-02T04:52:55.847Z,9.65
2022-10-02T04:55:41.277Z,9.67
2022-10-02T04:58:46.641Z,9.71
2022-10-02T05:01:43.923Z,9.75
2022-10-02T05:04:55.172Z,9.81
2022-10-02T05:07:49.540Z,9.85
2022-10-02T05:10:42.289Z,9.90
2022-10-02T05:13:17.623Z,9.93
2022-10-02T05:15:59.424Z,9.96
2022-10-02T05:18:58.277Z,9.97
2022-10-02T05:22:01.062Z,9.96
2022-10-02T05:25:18.055Z,9.97
2022-10-02T05:28:21.789Z,9.99
2022-10-02T05:31:04.466Z,10.06
2022-10-02T05:33:53.409Z,10.10
2022-10-02T05:36:40.205Z,10.12
2022-10-02T05:39:22.955Z,10.20
2022-10-02T05:42:08.228Z,10.19
2022-10-02T05:44:40.631Z,10.21
2022-10-02T05:47:16.463Z,10.23
2022-10-02T05:49:53.647Z,10.23
2022-10-02T05:52:52.093Z,10.26
2022-10-02T05:55:53.252Z,10.30
2022-10-02T05:58:36.889Z,10.37
2022-10-02T06:01:21.312Z,10.39
2022-10-02T06:04:15.187Z,10.47
2022-10-02T06:06:56.332Z,10.53
2022-10-02T06:09:28.907Z,10.57
2022-10-02T06:12:00.820Z,10.63
2022-10-02T06:14:36.983Z,10.70
2022-10-02T06:17:24.108Z,10.76
2022-10-02T06:20:13.664Z,10.78
2022-10-02T06:22:43.133Z,10.85
2022-10-02T06:25:22.164Z,10.88
2022-10-02T06:27:55.718Z,10.97
2022-10-02T06:30:22.442Z,11.02
2022-10-02T06:33:01.860Z,11.06
2022-10-02T06:35:34.682Z,11.06
2022-10-02T06:38:10.850Z,11.09
2022-10-02T06:40:42.848Z,11.17
2022-10-02T06:43:43.715Z,11.24
2022-10-02T06:46:40.064Z,11.31
2022-10-02T06:49:43.699Z,11.39
2022-10-02T06:52:19.404Z,11.48
2022-10-02T06:55:19.800Z,11.58
2022-10-02T06:58:08.265Z,11.66
2022-10-02T07:00:47.536Z,11.73
2022-10-02T07:03:41.214Z,11.77
2022-10-02T07:06:07.749Z,11.83
2022-10-02T07:08:49.517Z,11.88
2022-10-02T07:11:28.253Z,11.90
2022-10-02T07:14:30.392Z,11.90
2022-10-02T07:17:22.398Z,11.94
2022-10-02T07:19:58.221Z,12.00
2022-10-02T07:22:50.531Z,12.02
2022-10-02T07:25:34.176Z,12.09
2022-10-02T07:28:29.796Z,12.18
2022-10-02T07:31:41.675Z,12.19
2022-10-02T07:34:24.088Z,12.15
2022-10-02T07:37:25.593Z,12.20
2022-10-02T07:40:13.696Z,12.20
2022-10-02T07:42:57.864Z,12.25
2022-10-02T07:45:35.371Z,12.30
2022-10-02T07:48:28.659Z,12.36
2022-10-02T07:50:58.235Z,12.35
2022-10-02T07:53:55.524Z,12.45
2022-10-02T07:56:23.739Z,12.41
2022-10-02T07:58:57.747Z,12.39
2022-10-02T08:01:31.031Z,12.39
2022-10-02T08:04:02.638Z,12.39
2022-10-02T08:06:31.725Z,12.44
2022-10-02T08:09:14.619Z,12.51
2022-10-02T08:11:49.168Z,12.54
2022-10-02T08:14:28.184Z,12.62
2022-10-02T08:16:58.388Z,12.69
2022-10-02T08:19:43.342Z,12.73
2022-10-02T08:22:28.805Z,12.68
2022-10-02T08:24:58.927Z,12.69
2022-10-02T08:27:33.141Z,12.75
2022-10-02T08:30:06.558Z,12.75
2022-10-02T08:32:36.648Z,12.82
2022-10-02T08:35:12.492Z,12.77
2022-10-02T08:38:12.441Z,12.79
2022-10-02T08:40:56.059Z,12.86
2022-10-02T08:43:40.651Z,12.90
2022-10-02T08:46:27.573Z,13.00
2022-10-02T08:49:00.414Z,12.99
2022-10-02T08:51:42.399Z,13.05
2022-10-02T08:54:38.377Z,13.06
2022-10-02T08:57:13.989Z,13.07
2022-10-02T08:59:49.586Z,13.14
2022-10-02T09:03:13.423Z,13.12
2022-10-02T09:06:04.385Z,13.19
2022-10-02T09:08:52.069Z,13.20
2022-10-02T09:11:45.142Z,13.18
2022-10-02T09:14:47.224Z,13.25
2022-10-02T09:17:32.365Z,13.37
2022-10-02T09:20:04.799Z,13.34
2022-10-02T09:22:50.344Z,13.36
2022-10-02T09:25:43.946Z,13.38
2022-10-02T09:28:29.169Z,13.50
2022-10-02T09:31:40.293Z,13.55
2022-10-02T09:34:07.028Z,13.69
2022-10-02T09:36:45.994Z,13.79
2022-10-02T09:39:31.122Z,13.70
2022-10-02T09:41:58.240Z,13.73
2022-10-02T09:44:44.857Z,13.84
2022-10-02T09:48:01.660Z,13.91
2022-10-02T09:50:55.334Z,13.95
2022-10-02T09:53:58.654Z,13.96
2022-10-02T09:56:44.582Z,13.93
2022-10-02T09:59:49.138Z,13.92
2022-10-02T10:02:38.703Z,13.90
2022-10-02T10:05:08.809Z,13.98
2022-10-02T10:07:35.326Z,14.01
2022-10-02T10:10:04.536Z,13.80
2022-10-02T10:12:49.454Z,13.80
2022-10-02T10:15:22.963Z,13.84
2022-10-02T10:17:59.615Z,13.89
2022-10-02T10:20:42.749Z,14.01
2022-10-02T10:23:20.539Z,13.99
2022-10-02T10:25:50.477Z,14.01
2022-10-02T10:28:20.034Z,14.15
2022-10-02T10:31:10.195Z,14.25
2022-10-02T10:33:41.349Z,14.28
2022-10-02T10:36:40.361Z,14.34
2022-10-02T10:39:29.285Z,14.34
2022-10-02T10:42:07.977Z,14.48
2022-10-02T10:44:46.547Z,14.51
2022-10-02T10:47:59.401Z,14.47
2022-10-02T10:50:40.063Z,14.34
2022-10-02T10:54:01.953Z,14.37
2022-10-02T10:56:54.697Z,14.48
2022-10-02T10:59:53.338Z,14.45
2022-10-02T11:02:38.563Z,14.56
2022-10-02T11:05:05.069Z,14.77
2022-10-02T11:07:35.137Z,14.56
2022-10-02T11:10:32.901Z,14.63
2022-10-02T11:13:30.309Z,14.69
2022-10-02T11:15:56.808Z,14.80
2022-10-02T11:19:05.177Z,14.95
2022-10-02T11:21:46.626Z,15.12
2022-10-02T11:24:36.824Z,14.68
2022-10-02T11:27:21.632Z,14.76
2022-10-02T11:30:12.249Z,14.77
2022-10-02T11:32:47.924Z,14.82
2022-10-02T11:35:24.691Z,14.87
2022-10-02T11:38:15.165Z,14.84
2022-10-02T11:40:57.750Z,14.73
2022-10-02T11:43:52.934Z,14.69
2022-10-02T11:46:28.481Z,14.79
2022-10-02T11:49:25.276Z,14.78
2022-10-02T11:52:10.566Z,14.52
2022-10-02T11:54:55.740Z,14.47
2022-10-02T11:57:40.933Z,14.29
2022-10-02T12:00:45.444Z,14.47
2022-10-02T12:03:36.493Z,14.51
2022-10-02T12:06:24.290Z,14.42
2022-10-02T12:09:01.749Z,14.40
2022-10-02T12:11:34.792Z,14.47
2022-10-02T12:14:25.437Z,14.60
2022-10-02T12:17:21.850Z,14.57
2022-10-02T12:20:13.184Z,14.57
2022-10-02T12:23:11.706Z,14.74
2022-10-02T12:26:11.039Z,14.88
2022-10-02T12:28:46.588Z,15.04
2022-10-02T12:31:32.558Z,15.24
2022-10-02T12:34:38.375Z,15.14
2022-10-02T12:37:13.765Z,15.59
2022-10-02T12:40:11.176Z,15.90
2022-10-02T12:42:52.909Z,16.01
2022-10-02T12:45:25.816Z,16.05
2022-10-02T12:47:58.240Z,16.37
2022-10-02T12:50:46.765Z,16.76
2022-10-02T12:53:48.152Z,16.04
2022-10-02T12:56:51.607Z,15.98
2022-10-02T12:59:41.807Z,15.84
2022-10-02T13:02:49.287Z,15.74
2022-10-02T13:05:53.250Z,15.71
2022-10-02T13:08:32.597Z,15.57
2022-10-02T13:11:00.726Z,15.41
2022-10-02T13:13:40.141Z,15.47
2022-10-02T13:16:12.788Z,15.44
2022-10-02T13:18:43.782Z,15.59
2022-10-02T13:21:30.772Z,15.41
2022-10-02T13:24:27.335Z,15.53
2022-10-02T13:27:28.293Z,15.64
2022-10-02T13:30:19.885Z,15.72
2022-10-02T13:33:08.398Z,15.66
2022-10-02T13:35:39.434Z,15.68
2022-10-02T13:38:45.469Z,15.69
2022-10-02T13:41:25.760Z,15.76
2022-10-02T13:44:04.361Z,15.67
2022-10-02T13:47:07.941Z,15.56
2022-10-02T13:49:54.060Z,15.40
2022-10-02T13:52:57.614Z,15.33
2022-10-02T13:55:37.203Z,15.39
2022-10-02T13:58:26.657Z,15.23
2022-10-02T14:00:56.255Z,15.25
2022-10-02T14:04:10.857Z,15.12
2022-10-02T14:06:55.845Z,15.13
2022-10-02T14:10:05.002Z,14.95
2022-10-02T14:12:44.355Z,14.77
2022-10-02T14:15:13.756Z,14.66
2022-10-02T14:17:54.608Z,14.80
2022-10-02T14:20:36.842Z,14.84
2022-10-02T14:23:40.341Z,14.85
2022-10-02T14:26:32.900Z,14.98
2022-10-02T14:29:18.243Z,15.15
2022-10-02T14:32:03.037Z,15.24
2022-10-02T14:34:50.709Z,15.17
2022-10-02T14:37:29.969Z,15.21
2022-10-02T14:40:01.366Z,15.13
2022-10-02T14:42:30.733Z,15.14
2022-10-02T14:44:57.328Z,15.14
2022-10-02T14:47:42.351Z,15.04
2022-10-02T14:50:15.202Z,14.90
2022-10-02T14:52:57.448Z,14.77
2022-10-02T14:55:35.601Z,14.65
2022-10-02T14:58:30.249Z,14.73
2022-10-02T15:01:13.512Z,14.82
2022-10-02T15:04:15.485Z,14.73
2022-10-02T15:06:48.138Z,14.66
2022-10-02T15:09:18.386Z,14.63
2022-10-02T15:11:48.002Z,14.59
2022-10-02T15:14:46.641Z,14.56
2022-10-02T15:17:41.054Z,14.55
2022-10-02T15:20:22.617Z,14.42
2022-10-02T15:23:01.216Z,14.40
2022-10-02T15:25:39.122Z,14.35
2022-10-02T15:28:34.986Z,14.41
2022-10-02T15:31:41.659Z,14.24
2022-10-02T15:34:20.379Z,14.18
2022-10-02T15:37:06.711Z,14.07
2022-10-02T15:39:50.373Z,14.09
2022-10-02T15:42:40.040Z,14.02
2022-10-02T15:45:29.336Z,14.03
2022-10-02T15:47:55.739Z,13.93
2022-10-02T15:50:43.977Z,13.89
2022-10-02T15:53:25.531Z,13.89
2022-10-02T15:56:14.813Z,13.88
2022-10-02T15:59:13.105Z,13.74
2022-10-02T16:01:54.703Z,13.74
2022-10-02T16:04:44.250Z,13.63
2022-10-02T16:07:56.011Z,13.51
2022-10-02T16:11:08.345Z,13.49
2022-10-02T16:14:01.462Z,13.39
2022-10-02T16:16:37.197Z,13.29
2022-10-02T16:19:33.022Z,13.22
2022-10-02T16:22:18.061Z,13.12
2022-10-02T16:25:10.416Z,13.03
2022-10-02T16:27:55.681Z,13.01
2022-10-02T16:30:24.688Z,13.00
2022-10-02T16:33:15.854Z,12.92
2022-10-02T16:36:00.699Z,12.93
2022-10-02T16:38:52.017Z,12.84
2022-10-02T16:41:38.911Z,12.81
2022-10-02T16:44:34.323Z,12.83
2022-10-02T16:47:38.467Z,12.71
2022-10-02T16:50:29.279Z,12.68
2022-10-02T16:53:18.957Z,12.66
2022-10-02T16:55:58.193Z,12.65
2022-10-02T16:58:32.985Z,12.59
2022-10-02T17:01:23.993Z,12.55
2022-10-02T17:04:31.919Z,12.49
2022-10-02T17:07:02.982Z,12.48
2022-10-02T17:09:39.514Z,12.49
2022-10-02T17:12:44.656Z,12.45
2022-10-02T17:15:22.276Z,12.38
2022-10-02T17:18:44.331Z,12.29
2022-10-02T17:22:03.199Z,12.20
2022-10-02T17:25:00.164Z,12.17
2022-10-02T17:27:54.137Z,12.11
2022-10-02T17:30:27.311Z,12.11
2022-10-02T17:33:14.914Z,12.10
2022-10-02T17:35:52.487Z,12.09
2022-10-02T17:38:24.973Z,12.04
2022-10-02T17:41:00.507Z,11.98
2022-10-02T17:43:42.441Z,11.97
2022-10-02T17:46:49.678Z,11.92
2022-10-02T17:49:48.560Z,11.88
2022-10-02T17:52:40.920Z,11.81
2022-10-02T17:55:34.873Z,11.75
2022-10-02T17:58:19.535Z,11.67
2022-10-02T18:01:07.499Z,11.60
2022-10-02T18:03:40.752Z,11.51
2022-10-02T18:06:19.511Z,11.49
2022-10-02T18:09:26.082Z,11.44
2022-10-02T18:12:11.942Z,11.40
2022-10-02T18:15:06.710Z,11.35
2022-10-02T18:17:54.584Z,11.25
2022-10-02T18:20:34.937Z,11.20
2022-10-02T18:23:11.148Z,11.16
2022-10-02T18:25:50.857Z,11.14
2022-10-02T18:28:35.326Z,11.13
2022-10-02T18:31:28.831Z,11.09
2022-10-02T18:34:26.595Z,11.02
2022-10-02T18:37:17.075Z,10.93
2022-10-02T18:40:17.721Z,10.83
2022-10-02T18:42:58.003Z,10.82
2022-10-02T18:45:57.757Z,10.78
2022-10-02T18:48:50.573Z,10.74
2022-10-02T18:51:29.101Z,10.67
2022-10-02T18:54:17.925Z,10.64
2022-10-02T18:56:54.853Z,10.60
2022-10-02T18:59:30.224Z,10.58
2022-10-02T19:02:11.286Z,10.60
2022-10-02T19:05:05.578Z,10.54
2022-10-02T19:07:43.872Z,10.51
2022-10-02T19:10:28.794Z,10.43
2022-10-02T19:13:17.574Z,10.40
2022-10-02T19:15:46.671Z,10.39
2022-10-02T19:18:22.670Z,10.39
2022-10-02T19:20:51.588Z,10.38
2022-10-02T19:23:20.958Z,10.40
2022-10-02T19:25:50.163Z,10.40
2022-10-02T19:28:20.854Z,10.33
2022-10-02T19:30:51.826Z,10.30
2022-10-02T19:33:23.343Z,10.29
2022-10-02T19:35:51.703Z,10.25
2022-10-02T19:38:20.844Z,10.23
2022-10-02T19:40:55.042Z,10.17
2022-10-02T19:43:29.283Z,10.16
2022-10-02T19:46:01.286Z,10.11
2022-10-02T19:48:30.974Z,10.09
2022-10-02T19:51:07.329Z,10.04
2022-10-02T19:53:40.380Z,9.95
2022-10-02T19:56:14.931Z,9.91
2022-10-02T19:58:57.283Z,9.86
2022-10-02T20:01:30.193Z,9.85
2022-10-02T20:03:59.334Z,9.81
2022-10-02T20:06:31.250Z,9.78
2022-10-02T20:08:57.722Z,9.81
2022-10-02T20:11:45.325Z,9.75
2022-10-02T20:14:19.129Z,9.71
2022-10-02T20:17:04.348Z,9.65
2022-10-02T20:19:34.434Z,9.63
2022-10-02T20:22:07.841Z,9.60
2022-10-02T20:24:50.652Z,9.54
2022-10-02T20:27:34.678Z,9.47
2022-10-02T20:30:06.070Z,9.45
2022-10-02T20:32:43.246Z,9.40
2022-10-02T20:35:29.107Z,9.35
2022-10-02T20:37:58.825Z,9.29
2022-10-02T20:40:28.677Z,9.24
2022-10-02T20:43:03.344Z,9.19
2022-10-02T20:45:39.395Z,9.12
2022-10-02T20:48:20.687Z,9.08
2022-10-02T20:51:18.686Z,9.03
2022-10-02T20:54:10.906Z,8.94
2022-10-02T20:56:40.458Z,8.92
2022-10-02T20:59:06.861Z,8.83
2022-10-02T21:01:40.417Z,8.81
2022-10-02T21:04:18.841Z,8.77
2022-10-02T21:07:23.236Z,8.73
2022-10-02T21:10:05.327Z,8.65
2022-10-02T21:13:13.012Z,8.61
2022-10-02T21:15:39.703Z,8.57
2022-10-02T21:18:29.717Z,8.58
2022-10-02T21:21:24.098Z,8.62
2022-10-02T21:24:14.172Z,8.59
2022-10-02T21:27:32.175Z,8.56
2022-10-02T21:30:11.108Z,8.54
2022-10-02T21:32:46.499Z,8.54
2022-10-02T21:35:31.493Z,8.57
2022-10-02T21:38:27.833Z,8.57
2022-10-02T21:41:32.044Z,8.50
2022-10-02T21:44:29.366Z,8.48
2022-10-02T21:47:27.128Z,8.48
2022-10-02T21:50:20.688Z,8.48
2022-10-02T21:53:09.703Z,8.48
2022-10-02T21:56:03.807Z,8.45
2022-10-02T21:59:05.643Z,8.41
2022-10-02T22:02:06.814Z,8.40
2022-10-02T22:04:55.111Z,8.35
2022-10-02T22:07:55.794Z,8.30
2022-10-02T22:10:29.272Z,8.30
2022-10-02T22:13:39.481Z,8.28
2022-10-02T22:16:27.964Z,8.21
2022-10-02T22:19:03.035Z,8.16
2022-10-02T22:22:03.933Z,8.14
2022-10-02T22:24:33.323Z,8.11
2022-10-02T22:27:33.852Z,8.04
2022-10-02T22:30:00.643Z,7.99
2022-10-02T22:33:05.927Z,7.93
2022-10-02T22:35:32.342Z,7.89
2022-10-02T22:38:17.329Z,7.83
2022-10-02T22:40:58.813Z,7.82
2022-10-02T22:43:25.240Z,7.84
2022-10-02T22:45:59.126Z,7.80
2022-10-02T22:48:49.260Z,7.76
2022-10-02T22:51:38.175Z,7.70
2022-10-02T22:54:14.131Z,7.66
2022-10-02T22:57:03.601Z,7.64
2022-10-02T22:59:44.045Z,7.52
2022-10-02T23:02:35.252Z,7.51
2022-10-02T23:05:10.811Z,7.48
2022-10-02T23:07:40.565Z,7.44
2022-10-02T23:10:25.781Z,7.46
2022-10-02T23:13:05.874Z,7.43
2022-10-02T23:16:00.767Z,7.40
2022-10-02T23:18:36.995Z,7.41
2022-10-02T23:21:09.866Z,7.42
2022-10-02T23:23:53.783Z,7.37
2022-10-02T23:26:29.781Z,7.33
2022-10-02T23:29:05.825Z,7.32
2022-10-02T23:31:41.562Z,7.31
2022-10-02T23:34:49.965Z,7.29
2022-10-02T23:37:38.642Z,7.29
2022-10-02T23:40:57.758Z,7.26
2022-10-02T23:43:36.615Z,7.21
2022-10-02T23:46:09.900Z,7.23
2022-10-02T23:48:38.645Z,7.28
2022-10-02T23:51:28.211Z,7.33
2022-10-02T23:54:03.597Z,7.29
2022-10-02T23:56:33.177Z,7.31
2022-10-02T23:59:41.452Z,7.32
